Terminal Aerodrome Forecast
Issued by NWS Charleston, WV

Home | Current Version | Previous Version | Text Only | Print | Product List | Glossary On
Versions: 1 2 3 4 5 6 7 8 9 10 11 12 13 14 15 16 17 18 19 20 21
000
FTUS41 KRLX 132300
TAFHTS
TAF
KHTS 132335Z 1400/1424 22006G15KT P6SM SCT050
     FM140200 22005KT P6SM VCTS BKN050CB
     FM140400 VRB03KT 3SM TSRA BKN040CB
     FM140600 20004KT 6SM SHRA BR VCTS OVC045CB
     FM140900 21005KT 2SM BR VCTS OVC040CB
     FM141300 22006KT P6SM VCTS OVC045CB
     FM142100 23005KT P6SM BKN035=

USA.gov is the U.S. government's official web portal to all federal, state and local government web resources and services.